PAL319 VHHH-RPLL
Flight info
| Callsign | PAL319 |
|---|---|
| Flight time | N/A |
| Altitude | 41000 |
| Route | DALOL1X/07R DALOL V642 NOMAN A461 AVMUP W16 TADEL TADEL5R |
| Aircraft | A359/H-SDE2E3GHIJ3J4J5LM1ORWXY/LB1D1 |
Departure
| Time | 2026-05-05 08:13 |
|---|---|
| Airport | Hong Kong International Airport (VHHH) |
Arrival
| Time | N/A |
|---|---|
| Airport | Ninoy Aquino International Airport (RPLL) |
| Time | Latitude | Longitude | Altitude | Speed | Heading |
|---|---|---|---|---|---|
| 2026-05-05 07:53 | 22.31591 | 113.92207 | 37 ft | 0 kts | 252° |
| 2026-05-05 08:01 | 22.31590 | 113.92203 | 37 ft | 1 kts | 252° |
| 2026-05-05 08:01 | 22.31588 | 113.92199 | 37 ft | 2 kts | 252° |
| 2026-05-05 08:01 | 22.31568 | 113.92137 | 37 ft | 8 kts | 250° |
| 2026-05-05 08:01 | 22.31561 | 113.92117 | 37 ft | 9 kts | 245° |
| 2026-05-05 08:02 | 22.31549 | 113.92097 | 37 ft | 9 kts | 229° |
| 2026-05-05 08:02 | 22.31112 | 113.92210 | 37 ft | 21 kts | 160° |
| 2026-05-05 08:03 | 22.31004 | 113.92254 | 37 ft | 2 kts | 159° |
| 2026-05-05 08:03 | 22.30975 | 113.92263 | 37 ft | 5 kts | 163° |
| 2026-05-05 08:03 | 22.30924 | 113.92279 | 37 ft | 9 kts | 163° |
| 2026-05-05 08:03 | 22.30878 | 113.92293 | 37 ft | 11 kts | 163° |
| 2026-05-05 08:04 | 22.30673 | 113.92207 | 37 ft | 1 kts | 250° |
| 2026-05-05 08:05 | 22.30663 | 113.92197 | 37 ft | 2 kts | 208° |
| 2026-05-05 08:05 | 22.30633 | 113.92189 | 37 ft | 6 kts | 188° |
| 2026-05-05 08:05 | 22.30617 | 113.92187 | 37 ft | 7 kts | 191° |
| 2026-05-05 08:06 | 22.30519 | 113.92018 | 37 ft | 15 kts | 251° |
| 2026-05-05 08:06 | 22.30478 | 113.91885 | 37 ft | 18 kts | 251° |
| 2026-05-05 08:06 | 22.30432 | 113.91747 | 37 ft | 21 kts | 249° |
| 2026-05-05 08:06 | 22.30376 | 113.91588 | 37 ft | 23 kts | 249° |
| 2026-05-05 08:07 | 22.30313 | 113.91410 | 37 ft | 26 kts | 249° |
| 2026-05-05 08:07 | 22.30256 | 113.91212 | 37 ft | 28 kts | 257° |
| 2026-05-05 08:07 | 22.30193 | 113.91000 | 37 ft | 30 kts | 252° |
| 2026-05-05 08:07 | 22.30122 | 113.90774 | 37 ft | 33 kts | 249° |
| 2026-05-05 08:08 | 22.30040 | 113.90531 | 37 ft | 35 kts | 251° |
| 2026-05-05 08:08 | 22.29956 | 113.90273 | 37 ft | 37 kts | 251° |
| 2026-05-05 08:08 | 22.29868 | 113.90000 | 37 ft | 39 kts | 251° |
| 2026-05-05 08:09 | 22.29824 | 113.89885 | 37 ft | 1 kts | 249° |
| 2026-05-05 08:09 | 22.29818 | 113.89866 | 37 ft | 3 kts | 253° |
| 2026-05-05 08:10 | 22.29810 | 113.89834 | 37 ft | 5 kts | 253° |
| 2026-05-05 08:10 | 22.29791 | 113.89793 | 37 ft | 6 kts | 231° |
| 2026-05-05 08:10 | 22.29744 | 113.89773 | 37 ft | 8 kts | 181° |
| 2026-05-05 08:10 | 22.29682 | 113.89795 | 37 ft | 10 kts | 143° |
| 2026-05-05 08:11 | 22.29651 | 113.89874 | 37 ft | 12 kts | 88° |
| 2026-05-05 08:11 | 22.29663 | 113.89931 | 37 ft | 0 kts | 72° |
| 2026-05-05 08:11 | 22.29667 | 113.89944 | 37 ft | 3 kts | 72° |
| 2026-05-05 08:12 | 22.29684 | 113.90002 | 37 ft | 27 kts | 71° |
| 2026-05-05 08:12 | 22.29854 | 113.90528 | 37 ft | 119 kts | 71° |
| 2026-05-05 08:12 | 22.30240 | 113.91670 | 68 ft | 195 kts | 69° |
| 2026-05-05 08:12 | 22.30773 | 113.93174 | 619 ft | 234 kts | 70° |
| 2026-05-05 08:13 | 22.31346 | 113.94976 | 1251 ft | 273 kts | 72° |
| 2026-05-05 08:13 | 22.31931 | 113.96883 | 2514 ft | 256 kts | 71° |
| 2026-05-05 08:13 | 22.32441 | 113.98515 | 3495 ft | 215 kts | 70° |
| 2026-05-05 08:13 | 22.32921 | 114.00024 | 4251 ft | 216 kts | 70° |
| 2026-05-05 08:14 | 22.33415 | 114.01570 | 4737 ft | 219 kts | 69° |
| 2026-05-05 08:14 | 22.33823 | 114.03178 | 5161 ft | 227 kts | 83° |
| 2026-05-05 08:14 | 22.33703 | 114.04900 | 6032 ft | 233 kts | 104° |
| 2026-05-05 08:14 | 22.33036 | 114.06468 | 7003 ft | 235 kts | 124° |
| 2026-05-05 08:15 | 22.31889 | 114.07713 | 7848 ft | 242 kts | 144° |
| 2026-05-05 08:15 | 22.30902 | 114.08328 | 8284 ft | 252 kts | 156° |
| 2026-05-05 08:15 | 22.28553 | 114.08827 | 9219 ft | 268 kts | 179° |
| 2026-05-05 08:15 | 22.26650 | 114.08808 | 9861 ft | 282 kts | 182° |
| 2026-05-05 08:16 | 22.24622 | 114.08745 | 10449 ft | 298 kts | 182° |
| 2026-05-05 08:16 | 22.22516 | 114.08690 | 11199 ft | 307 kts | 182° |
| 2026-05-05 08:16 | 22.20400 | 114.08654 | 12066 ft | 311 kts | 181° |
| 2026-05-05 08:16 | 22.18278 | 114.08709 | 12915 ft | 316 kts | 171° |